Time;durP1;ratioP1;P1;durP2;ratioP2;P2;SDS_P1;SDS_P2;PMS_P1;PMS_P2;Temp;Humidity;BMP_temperature;BMP_pressure;BME280_temperature;BME280_humidity;BME280_pressure;Samples;Min_cycle;Max_cycle;Signal;HPM_P1;HPM_P2
2021/03/20 00:00:59;;;;;;;9.15;5.15;;;;;;;2.17;71.48;100483.57;1759052;80;21193;-57
2021/03/20 00:03:27;;;;;;;10.45;5.72;;;;;;;2.19;71.50;100491.30;1736123;80;21210;-57
2021/03/20 00:05:55;;;;;;;13.40;4.62;;;;;;;2.25;71.35;100488.88;1743435;80;21193;-57
2021/03/20 00:08:25;;;;;;;9.80;4.58;;;;;;;2.25;71.41;100494.90;1754999;79;21189;-57
2021/03/20 00:10:54;;;;;;;12.55;5.90;;;;;;;2.22;71.55;100487.27;1713423;79;21183;-56
2021/03/20 00:13:24;;;;;;;8.63;3.90;;;;;;;2.18;71.66;100487.83;1790605;79;21105;-56
2021/03/20 00:15:53;;;;;;;6.87;3.62;;;;;;;2.21;71.74;100482.98;1746490;79;21165;-57
2021/03/20 00:18:22;;;;;;;8.43;4.05;;;;;;;2.30;71.46;100484.32;1762721;79;21215;-56
2021/03/20 00:20:50;;;;;;;8.33;3.37;;;;;;;2.33;71.18;100486.33;1789068;79;21595;-56
2021/03/20 00:23:17;;;;;;;6.30;3.00;;;;;;;2.31;71.12;100483.42;1781396;79;21168;-57
2021/03/20 00:25:45;;;;;;;10.00;3.92;;;;;;;2.29;71.18;100483.95;1781853;79;21200;-56
2021/03/20 00:28:21;;;;;;;7.67;3.67;;;;;;;2.23;71.16;100484.58;1785777;79;21164;-56
2021/03/20 00:30:45;;;;;;;9.00;4.15;;;;;;;2.26;71.19;100487.52;1788751;79;21209;-57
2021/03/20 00:33:12;;;;;;;12.28;3.92;;;;;;;2.36;70.93;100481.00;1787885;79;21704;-57
2021/03/20 00:35:40;;;;;;;12.50;4.22;;;;;;;2.39;70.84;100480.03;1788280;79;21084;-57
2021/03/20 00:38:08;;;;;;;11.15;5.05;;;;;;;2.43;70.84;100486.77;1763218;79;21156;-56
2021/03/20 00:40:36;;;;;;;15.05;4.97;;;;;;;2.42;70.68;100479.88;1791347;79;21158;-57
2021/03/20 00:43:03;;;;;;;9.58;4.33;;;;;;;2.40;70.71;100481.27;1785000;79;21454;-57
2021/03/20 00:45:30;;;;;;;10.63;4.28;;;;;;;2.45;70.50;100480.20;1785641;79;21187;-57
2021/03/20 00:48:05;;;;;;;13.15;4.97;;;;;;;2.54;70.26;100479.34;1786324;79;21148;-56
2021/03/20 00:50:33;;;;;;;10.88;3.77;;;;;;;2.59;69.95;100483.04;1790542;79;21239;-58
2021/03/20 00:53:01;;;;;;;14.63;4.53;;;;;;;2.57;70.06;100477.91;1786608;79;21163;-57
2021/03/20 00:55:30;;;;;;;8.80;3.30;;;;;;;2.56;70.09;100478.81;1727140;81;21661;-56
2021/03/20 00:57:57;;;;;;;6.75;3.42;;;;;;;2.56;69.96;100476.68;1728515;81;21215;-59
2021/03/20 01:00:27;;;;;;;9.75;4.10;;;;;;;2.55;69.80;100469.32;1769480;79;21623;-57
2021/03/20 01:02:55;;;;;;;13.20;3.27;;;;;;;2.57;69.64;100472.72;1788064;79;21188;-57
2021/03/20 01:05:24;;;;;;;8.60;3.33;;;;;;;2.69;69.39;100477.81;1792267;79;21112;-57
2021/03/20 01:07:51;;;;;;;9.35;4.10;;;;;;;2.77;69.28;100469.20;1784643;79;22393;-56
2021/03/20 01:10:21;;;;;;;6.35;3.15;;;;;;;2.81;69.00;100475.10;1786960;79;21184;-57
2021/03/20 01:12:49;;;;;;;7.62;3.67;;;;;;;2.78;68.89;100468.74;1795063;79;21183;-57
2021/03/20 01:15:17;;;;;;;7.55;3.42;;;;;;;2.76;68.98;100474.47;1794091;79;21112;-57
2021/03/20 01:17:44;;;;;;;6.62;3.10;;;;;;;2.73;69.02;100474.61;1766007;79;21199;-57
2021/03/20 01:20:14;;;;;;;6.22;3.05;;;;;;;2.74;69.00;100467.18;1766113;79;21159;-56
2021/03/20 01:22:41;;;;;;;6.80;3.60;;;;;;;2.74;68.78;100465.45;1792382;79;21120;-57
2021/03/20 01:25:10;;;;;;;10.75;3.50;;;;;;;2.83;68.54;100472.44;1793952;79;21080;-57
2021/03/20 01:27:39;;;;;;;8.20;4.25;;;;;;;2.87;68.41;100473.97;1794908;78;21473;-57
2021/03/20 01:30:12;;;;;;;8.70;3.72;;;;;;;2.84;68.53;100467.17;1793152;79;21151;-57
2021/03/20 01:32:39;;;;;;;5.95;2.87;;;;;;;2.83;68.62;100466.77;1763752;79;21187;-57
2021/03/20 01:35:08;;;;;;;7.87;3.50;;;;;;;2.82;68.82;100472.03;1800050;79;21618;-57
2021/03/20 01:37:36;;;;;;;12.85;3.58;;;;;;;2.79;68.76;100470.41;1795591;79;21120;-57
2021/03/20 01:40:06;;;;;;;8.03;4.00;;;;;;;2.76;68.93;100471.41;1797499;79;21139;-57
2021/03/20 01:42:34;;;;;;;10.10;3.95;;;;;;;2.77;68.96;100473.11;1768744;79;21188;-57
2021/03/20 01:45:20;;;;;;;9.38;4.58;;;;;;;2.84;68.86;100474.97;1799137;79;21333;-57
2021/03/20 01:47:53;;;;;;;9.63;4.90;;;;;;;2.87;68.94;100468.77;1796883;79;21203;-57
2021/03/20 01:50:33;;;;;;;8.15;4.15;;;;;;;2.86;69.20;100473.12;1824909;76;23402;-58
2021/03/20 01:53:23;;;;;;;9.40;4.92;;;;;;;2.85;69.29;100475.80;1767422;79;21131;-58
2021/03/20 01:55:51;;;;;;;13.22;5.65;;;;;;;2.85;69.37;100480.53;1760984;77;21191;-57
2021/03/20 01:58:19;;;;;;;9.53;5.10;;;;;;;2.83;69.41;100486.73;1737094;81;21136;-58
2021/03/20 02:00:47;;;;;;;10.43;5.35;;;;;;;2.83;69.10;100480.23;1720692;81;21163;-57
2021/03/20 02:03:18;;;;;;;10.18;5.58;;;;;;;2.92;69.12;100483.22;1797389;79;21140;-58
2021/03/20 02:05:46;;;;;;;12.63;6.10;;;;;;;2.97;69.03;100483.02;1789862;79;21184;-58
2021/03/20 02:08:15;;;;;;;9.05;5.20;;;;;;;2.94;69.17;100489.66;1792822;79;21201;-57
2021/03/20 02:10:44;;;;;;;9.88;4.83;;;;;;;2.92;69.16;100487.59;1761373;79;21140;-57
2021/03/20 02:13:38;;;;;;;12.70;6.25;;;;;;;2.87;69.07;100489.09;1791827;79;21155;-57
2021/03/20 02:16:14;;;;;;;10.80;5.72;;;;;;;2.86;69.14;100491.76;1767109;79;21152;-58
2021/03/20 02:19:08;;;;;;;9.45;6.22;;;;;;;2.86;68.99;100497.82;1793525;79;21194;-58
2021/03/20 02:21:40;;;;;;;9.43;5.85;;;;;;;2.88;68.91;100493.86;1795179;79;21375;-57
2021/03/20 02:24:52;;;;;;;16.82;8.00;;;;;;;2.82;69.08;100498.02;1788807;79;21179;-57
2021/03/20 02:27:51;;;;;;;14.65;6.80;;;;;;;2.73;69.30;100496.23;1763919;79;21226;-55
2021/03/20 02:30:59;;;;;;;13.20;7.75;;;;;;;2.65;69.61;100498.80;1793754;79;21110;-57
2021/03/20 02:33:54;;;;;;;12.33;6.90;;;;;;;2.63;69.77;100500.63;1796745;79;21146;-56
2021/03/20 02:37:03;;;;;;;15.40;8.35;;;;;;;2.69;69.83;100500.33;1747994;79;21204;-57
2021/03/20 02:40:02;;;;;;;13.53;6.78;;;;;;;2.72;69.82;100507.98;1789766;79;21222;-56
2021/03/20 02:42:38;;;;;;;13.22;6.30;;;;;;;2.66;69.85;100500.50;1786969;79;21163;-56
2021/03/20 02:45:16;;;;;;;13.20;6.67;;;;;;;2.57;69.67;100502.59;1777084;79;21206;-56
2021/03/20 02:47:58;;;;;;;15.98;7.67;;;;;;;2.50;69.78;100508.11;1791172;79;21575;-56
2021/03/20 02:50:34;;;;;;;18.60;7.60;;;;;;;2.43;69.87;100500.22;1769872;79;21203;-56
2021/03/20 02:53:11;;;;;;;;;;;;;;;2.46;70.00;100497.48;1793612;79;21195;-57
2021/03/20 02:55:46;;;;;;;10.08;6.03;;;;;;;2.44;70.29;100506.64;1788371;79;20345;-57
2021/03/20 02:58:18;;;;;;;12.30;7.60;;;;;;;2.34;70.73;100502.30;1787182;79;21619;-56
2021/03/20 03:00:53;;;;;;;16.27;7.55;;;;;;;2.34;70.97;100502.77;1763456;79;21148;-56
2021/03/20 03:03:22;;;;;;;12.87;6.63;;;;;;;2.33;70.91;100505.80;1794629;79;21211;-57
2021/03/20 03:06:07;;;;;;;13.03;7.87;;;;;;;2.40;70.89;100512.44;1788713;77;21163;-57
2021/03/20 03:08:42;;;;;;;14.28;7.97;;;;;;;2.51;70.76;100505.45;1790734;79;21112;-57
2021/03/20 03:11:20;;;;;;;15.10;8.20;;;;;;;2.64;70.69;100510.95;1787629;79;21140;-57
2021/03/20 03:14:09;;;;;;;12.85;7.67;;;;;;;2.73;70.53;100511.82;1791175;79;21208;-56
2021/03/20 03:16:47;;;;;;;14.75;8.50;;;;;;;2.75;70.42;100511.29;1786416;79;21385;-56
2021/03/20 03:19:25;;;;;;;16.65;9.85;;;;;;;2.69;70.33;100519.38;1788159;79;21125;-56
2021/03/20 03:21:55;;;;;;;14.60;8.70;;;;;;;2.59;70.30;100525.91;1790534;79;21084;-56
2021/03/20 03:24:25;;;;;;;16.48;8.73;;;;;;;2.50;70.61;100532.33;1788416;79;21180;-56
2021/03/20 03:26:59;;;;;;;15.35;9.28;;;;;;;2.45;70.73;100525.66;1744846;79;21180;-56
2021/03/20 03:29:29;;;;;;;15.30;9.15;;;;;;;2.41;71.05;100528.39;1794387;77;21167;-56
2021/03/20 03:32:26;;;;;;;14.87;8.33;;;;;;;2.36;71.11;100526.45;1758616;79;21116;-56
2021/03/20 03:35:08;;;;;;;13.53;8.75;;;;;;;2.32;71.15;100537.02;1789894;79;21761;-56
2021/03/20 03:38:14;;;;;;;14.80;9.00;;;;;;;2.21;71.26;100533.14;1790551;79;21093;-56
2021/03/20 03:41:01;;;;;;;14.70;8.48;;;;;;;2.25;71.20;100528.66;1793075;79;21143;-55
2021/03/20 03:43:28;;;;;;;10.55;6.90;;;;;;;2.28;71.08;100532.42;1787720;79;21215;-56
2021/03/20 03:45:57;;;;;;;12.70;7.62;;;;;;;2.21;70.97;100529.71;1791436;79;21164;-56
2021/03/20 03:48:25;;;;;;;13.62;7.95;;;;;;;2.15;71.07;100532.13;1793145;79;21191;-55
2021/03/20 03:50:55;;;;;;;12.33;6.80;;;;;;;2.07;71.08;100532.91;1787540;79;21129;-55
2021/03/20 03:53:27;;;;;;;13.18;6.50;;;;;;;2.07;70.89;100525.55;1788940;77;21093;-55
2021/03/20 03:55:58;;;;;;;10.32;5.90;;;;;;;2.11;70.55;100534.45;1766552;79;21180;-55
2021/03/20 03:58:53;;;;;;;8.85;5.30;;;;;;;2.10;70.53;100529.31;1761938;79;21171;-55
2021/03/20 04:01:44;;;;;;;10.20;6.42;;;;;;;2.04;70.53;100533.86;1783849;79;21132;-55
2021/03/20 04:04:27;;;;;;;11.93;5.78;;;;;;;1.96;70.79;100525.55;1764258;79;21160;-55
2021/03/20 04:07:26;;;;;;;9.83;5.58;;;;;;;1.89;70.92;100525.89;1780944;79;21168;-55
2021/03/20 04:10:06;;;;;;;9.58;5.55;;;;;;;1.91;70.83;100527.95;1763846;79;21229;-55
2021/03/20 04:13:08;;;;;;;10.23;5.05;;;;;;;2.01;70.66;100527.95;1745343;79;21179;-54
2021/03/20 04:16:11;;;;;;;9.15;4.75;;;;;;;2.06;70.41;100535.56;1724630;81;21171;-57
2021/03/20 04:18:50;;;;;;;12.90;5.53;;;;;;;2.06;70.39;100535.56;1783786;79;21136;-57
2021/03/20 04:21:51;;;;;;;10.65;5.62;;;;;;;2.02;70.27;100539.58;1712985;81;21123;-57
2021/03/20 04:24:36;;;;;;;11.80;5.65;;;;;;;1.95;70.24;100538.59;1787873;79;22388;-55
2021/03/20 04:27:12;;;;;;;10.40;5.87;;;;;;;1.94;70.24;100544.24;1767864;80;21586;-55
2021/03/20 04:30:11;;;;;;;13.55;4.90;;;;;;;2.00;70.15;100546.59;1793143;79;21120;-55
2021/03/20 04:33:07;;;;;;;10.15;4.72;;;;;;;2.01;70.21;100548.27;1784149;79;21191;-56
2021/03/20 04:35:45;;;;;;;13.60;5.95;;;;;;;1.98;70.11;100553.58;1762267;79;21623;-55
2021/03/20 04:38:13;;;;;;;10.32;5.53;;;;;;;1.95;70.22;100551.56;1744258;79;21393;-55
2021/03/20 04:40:59;;;;;;;10.65;5.37;;;;;;;1.93;70.30;100554.22;1784997;79;21164;-55
2021/03/20 04:43:29;;;;;;;8.55;4.25;;;;;;;2.01;70.13;100557.34;1789867;77;21191;-55
2021/03/20 04:46:10;;;;;;;9.13;4.75;;;;;;;2.12;70.03;100556.05;1784942;77;21207;-55
2021/03/20 04:48:39;;;;;;;9.45;6.12;;;;;;;2.12;69.93;100560.81;1785647;77;21208;-55
2021/03/20 04:51:35;;;;;;;13.55;6.30;;;;;;;2.12;70.02;100555.61;1798129;78;22243;-54
2021/03/20 04:54:12;;;;;;;9.43;6.35;;;;;;;2.15;70.04;100559.81;1791170;77;21113;-55
2021/03/20 04:56:48;;;;;;;9.68;5.87;;;;;;;2.11;70.01;100557.81;1790575;79;21168;-54
2021/03/20 04:59:24;;;;;;;10.50;5.10;;;;;;;2.13;69.98;100560.34;1790837;79;26810;-55
2021/03/20 05:01:52;;;;;;;8.55;5.42;;;;;;;2.21;69.89;100569.95;1714437;79;23090;-55
2021/03/20 05:04:31;;;;;;;9.43;5.05;;;;;;;2.26;69.79;100565.41;1801116;79;21192;-55
2021/03/20 05:06:59;;;;;;;10.18;5.53;;;;;;;2.31;69.92;100570.41;1792472;79;21202;-55
2021/03/20 05:09:28;;;;;;;12.05;5.60;;;;;;;2.34;69.76;100569.82;1757982;79;21227;-55
2021/03/20 05:12:00;;;;;;;11.68;5.72;;;;;;;2.37;69.70;100568.83;1789429;79;21155;-55
2021/03/20 05:14:38;;;;;;;9.88;5.62;;;;;;;2.38;69.63;100571.83;1788747;79;21658;-56
2021/03/20 05:17:12;;;;;;;11.80;6.05;;;;;;;2.40;69.63;100572.59;1797825;79;21220;-56
2021/03/20 05:19:40;;;;;;;9.45;5.00;;;;;;;2.48;69.41;100575.72;1763134;79;21210;-57
2021/03/20 05:22:18;;;;;;;11.00;4.67;;;;;;;2.64;69.07;100575.91;1790974;79;21164;-56
2021/03/20 05:24:48;;;;;;;8.55;5.20;;;;;;;2.74;68.80;100578.92;1795373;79;21370;-58
2021/03/20 05:27:20;;;;;;;10.50;5.55;;;;;;;2.75;68.51;100578.02;1756278;79;21231;-59
2021/03/20 05:29:48;;;;;;;11.08;6.25;;;;;;;2.73;68.32;100583.28;1796824;77;21223;-59
2021/03/20 05:32:18;;;;;;;12.03;5.65;;;;;;;2.70;68.49;100587.30;1799231;77;21164;-56
2021/03/20 05:34:47;;;;;;;10.15;5.90;;;;;;;2.66;68.17;100587.53;1795609;79;21194;-56
2021/03/20 05:37:28;;;;;;;10.00;5.22;;;;;;;2.59;68.54;100588.25;1767906;79;21239;-58
2021/03/20 05:39:56;;;;;;;9.30;4.78;;;;;;;2.65;68.08;100584.07;1763521;79;21188;-57
2021/03/20 05:42:48;;;;;;;10.08;5.03;;;;;;;2.69;68.33;100584.34;1763034;79;21175;-58
2021/03/20 05:45:35;;;;;;;9.78;4.58;;;;;;;2.70;68.43;100591.20;1788821;77;21212;-59
2021/03/20 05:48:17;;;;;;;10.65;5.58;;;;;;;2.71;68.46;100589.01;1774889;79;21156;-58
2021/03/20 05:51:17;;;;;;;8.43;5.10;;;;;;;2.71;68.59;100591.61;1798834;79;21363;-57
2021/03/20 05:54:28;;;;;;;8.75;5.08;;;;;;;2.72;68.71;100593.30;1769125;79;21179;-57
2021/03/20 05:57:25;;;;;;;8.45;4.97;;;;;;;2.82;68.71;100591.58;1765389;79;21160;-57
2021/03/20 06:00:04;;;;;;;10.70;5.65;;;;;;;3.01;68.21;100601.98;1780439;77;21199;-59
2021/03/20 06:03:02;;;;;;;8.15;4.95;;;;;;;3.02;68.17;100603.22;1795631;79;21670;-57
2021/03/20 06:05:50;;;;;;;11.30;6.10;;;;;;;3.05;68.14;100599.19;1775226;79;21571;-56
2021/03/20 06:08:56;;;;;;;14.63;6.65;;;;;;;3.07;68.04;100605.16;1790730;79;21203;-56
2021/03/20 06:11:44;;;;;;;14.10;7.03;;;;;;;3.06;68.23;100606.09;1793758;77;22150;-57
2021/03/20 06:14:23;;;;;;;14.65;6.72;;;;;;;3.08;68.17;100604.26;1791617;79;21206;-56
2021/03/20 06:17:20;;;;;;;12.15;7.35;;;;;;;3.16;67.91;100610.39;1768680;79;21231;-57
2021/03/20 06:20:09;;;;;;;13.03;7.80;;;;;;;3.26;67.47;100614.28;1793754;79;21222;-57
2021/03/20 06:23:15;;;;;;;14.78;7.92;;;;;;;3.30;67.58;100613.69;1798535;79;21207;-57
2021/03/20 06:29:22;;;;;;;11.88;6.50;;;;;;;3.39;67.00;100610.64;1764707;79;23346;-57
2021/03/20 06:32:06;;;;;;;16.35;6.83;;;;;;;3.39;66.30;100617.61;1725009;82;21643;-57
2021/03/20 06:34:37;;;;;;;29.05;12.18;;;;;;;3.35;66.38;100621.66;1730810;82;21285;-58
2021/03/20 06:37:16;;;;;;;28.25;13.25;;;;;;;3.44;67.28;100620.84;1705537;82;21222;-58
2021/03/20 06:40:02;;;;;;;16.17;7.47;;;;;;;3.55;66.85;100622.49;1732610;82;21192;-59
2021/03/20 06:42:33;;;;;;;14.90;6.85;;;;;;;3.57;65.83;100628.93;1738226;82;21623;-57
2021/03/20 06:45:22;;;;;;;13.55;7.40;;;;;;;3.62;65.15;100620.45;1735874;82;22477;-59
2021/03/20 06:47:59;;;;;;;10.00;5.83;;;;;;;3.66;64.30;100624.58;1733794;81;23561;-57
2021/03/20 06:50:33;;;;;;;10.80;6.30;;;;;;;3.65;63.17;100627.64;1708473;82;21211;-57
2021/03/20 06:53:05;;;;;;;11.75;6.53;;;;;;;3.66;62.57;100629.78;1730353;82;21109;-63
2021/03/20 06:55:41;;;;;;;10.45;5.95;;;;;;;3.62;61.70;100629.55;1730192;82;21173;-55
2021/03/20 06:58:24;;;;;;;14.13;6.33;;;;;;;3.50;61.01;100634.88;1706860;82;21188;-55
2021/03/20 07:00:54;;;;;;;10.13;5.83;;;;;;;3.41;61.95;100633.98;1701557;82;21269;-56
2021/03/20 07:03:51;;;;;;;11.25;6.30;;;;;;;3.39;62.17;100639.72;1732657;80;22404;-55
2021/03/20 07:06:39;;;;;;;9.98;6.15;;;;;;;3.32;62.04;100643.06;1730350;82;21713;-54
2021/03/20 07:09:07;;;;;;;11.55;6.60;;;;;;;3.28;62.84;100646.73;1734236;81;22063;-55
2021/03/20 07:11:42;;;;;;;11.50;6.35;;;;;;;3.29;62.93;100649.23;1733146;82;21120;-55
2021/03/20 07:14:33;;;;;;;10.95;5.60;;;;;;;3.34;63.01;100652.93;1731399;82;21211;-54
2021/03/20 07:17:01;;;;;;;13.25;6.60;;;;;;;3.36;62.46;100657.60;1731439;82;21168;-54
2021/03/20 07:19:33;;;;;;;14.25;5.83;;;;;;;3.39;61.60;100660.06;1732082;82;21132;-55
2021/03/20 07:22:05;;;;;;;9.75;5.92;;;;;;;3.44;61.25;100658.56;1722159;82;21255;-54
2021/03/20 07:24:39;;;;;;;9.10;5.42;;;;;;;3.49;61.05;100654.83;1732635;80;21204;-55
2021/03/20 07:27:19;;;;;;;12.55;6.97;;;;;;;3.50;60.94;100660.89;1731835;81;21223;-55
2021/03/20 07:29:58;;;;;;;14.53;6.45;;;;;;;3.57;60.55;100662.76;1709350;82;21766;-55
2021/03/20 07:32:33;;;;;;;10.55;5.50;;;;;;;3.64;60.88;100668.05;1731900;82;21208;-55
2021/03/20 07:35:15;;;;;;;12.93;5.28;;;;;;;3.69;59.60;100668.21;1733784;82;21199;-54
2021/03/20 07:37:43;;;;;;;9.85;5.75;;;;;;;3.71;59.40;100673.34;1692748;82;21215;-56
2021/03/20 07:40:28;;;;;;;8.83;5.03;;;;;;;3.73;59.02;100675.41;1732592;82;22860;-55
2021/03/20 07:43:17;;;;;;;12.03;4.15;;;;;;;3.74;57.83;100673.68;1729046;80;21192;-54
2021/03/20 07:45:48;;;;;;;10.88;4.12;;;;;;;3.69;56.43;100682.53;1677672;82;21223;-55
2021/03/20 07:48:26;;;;;;;12.37;4.30;;;;;;;3.66;57.58;100679.23;1728424;82;21184;-55
2021/03/20 07:51:14;;;;;;;7.62;3.87;;;;;;;3.67;57.79;100679.16;1730602;82;21607;-55
2021/03/20 07:53:48;;;;;;;9.28;4.58;;;;;;;3.71;57.22;100680.69;1729630;82;21364;-55
2021/03/20 07:56:34;;;;;;;11.03;5.28;;;;;;;3.76;56.91;100684.85;1728707;82;21600;-55
2021/03/20 07:59:26;;;;;;;9.35;4.83;;;;;;;3.79;56.02;100683.41;1730934;82;21227;-54
2021/03/20 08:01:59;;;;;;;10.95;4.67;;;;;;;3.83;56.84;100690.15;1730059;80;21176;-56
2021/03/20 08:04:53;;;;;;;10.53;4.40;;;;;;;3.87;56.91;100686.50;1704079;82;21193;-56
2021/03/20 08:07:35;;;;;;;8.73;4.05;;;;;;;3.86;57.18;100688.70;1729725;80;22784;-58
2021/03/20 08:10:18;;;;;;;12.35;5.33;;;;;;;3.91;57.34;100688.03;1699036;82;21218;-57
2021/03/20 08:13:17;;;;;;;8.55;4.45;;;;;;;3.96;57.26;100682.14;1700666;82;21180;-57
2021/03/20 08:15:49;;;;;;;8.13;3.80;;;;;;;4.07;57.54;100688.16;1718222;82;21191;-56
2021/03/20 08:18:38;;;;;;;9.50;4.00;;;;;;;4.21;56.42;100688.79;1733277;80;21118;-56
2021/03/20 08:21:31;;;;;;;8.60;3.92;;;;;;;4.29;55.63;100687.95;1732395;80;21366;-57
2021/03/20 08:24:28;;;;;;;7.80;3.92;;;;;;;4.37;56.10;100684.95;1730820;80;21199;-56
2021/03/20 08:27:16;;;;;;;8.20;3.62;;;;;;;4.47;56.15;100686.19;1726709;82;21148;-55
2021/03/20 08:29:53;;;;;;;9.70;3.87;;;;;;;4.55;55.07;100687.12;1727221;82;21116;-55
2021/03/20 08:32:59;;;;;;;7.00;3.17;;;;;;;4.60;53.53;100686.42;1733121;82;21773;-55
2021/03/20 08:35:37;;;;;;;11.18;4.37;;;;;;;4.58;53.10;100687.80;1703073;82;22007;-56
2021/03/20 08:38:13;;;;;;;10.90;4.10;;;;;;;4.59;53.54;100688.64;1704401;82;21235;-56
2021/03/20 08:40:56;;;;;;;7.33;3.00;;;;;;;4.61;52.65;100689.43;1734276;82;21136;-56
2021/03/20 08:44:08;;;;;;;7.70;3.65;;;;;;;4.62;52.78;100691.96;1732627;82;21124;-56
2021/03/20 08:50:25;;;;;;;7.55;2.85;;;;;;;4.66;52.11;100696.55;1700059;82;21653;-57
2021/03/20 08:53:16;;;;;;;5.87;2.45;;;;;;;4.68;52.52;100686.89;1676319;84;21791;-56
2021/03/20 08:56:27;;;;;;;10.78;3.70;;;;;;;4.74;52.42;100689.19;1645517;82;21246;-56
2021/03/20 08:59:06;;;;;;;7.60;3.12;;;;;;;4.82;52.69;100695.30;1667994;84;21165;-55
2021/03/20 09:01:47;;;;;;;6.30;2.98;;;;;;;4.91;52.22;100697.45;1616175;85;21262;-57
2021/03/20 09:04:22;;;;;;;6.75;3.25;;;;;;;4.95;50.96;100702.05;1641601;85;21252;-57
2021/03/20 09:07:01;;;;;;;6.80;3.37;;;;;;;4.92;51.35;100693.08;1667289;84;21227;-57
2021/03/20 09:09:45;;;;;;;8.08;3.20;;;;;;;4.90;51.53;100700.14;1642007;84;21221;-56
2021/03/20 09:12:31;;;;;;;9.70;3.98;;;;;;;4.90;51.53;100700.14;1694149;83;21221;-57
2021/03/20 09:14:59;;;;;;;10.98;3.45;;;;;;;4.93;50.74;100709.11;1642443;85;21180;-56
2021/03/20 09:17:34;;;;;;;7.20;2.70;;;;;;;4.93;49.32;100702.13;1645248;84;21205;-59
2021/03/20 09:20:25;;;;;;;6.87;3.10;;;;;;;4.98;49.70;100707.11;1620283;87;21662;-57
2021/03/20 09:22:53;;;;;;;7.87;2.72;;;;;;;5.02;48.98;100709.93;1666639;84;21216;-57
2021/03/20 09:25:54;;;;;;;6.65;2.45;;;;;;;5.06;48.34;100701.48;1667937;84;21222;-57
2021/03/20 09:28:28;;;;;;;5.87;2.62;;;;;;;5.05;46.20;100707.17;1698917;83;21211;-58
2021/03/20 09:31:00;;;;;;;5.92;1.70;;;;;;;5.01;45.41;100711.70;1720992;81;21389;-57
2021/03/20 09:33:33;;;;;;;5.30;1.70;;;;;;;5.00;43.63;100711.31;1725321;82;21426;-57
2021/03/20 09:36:10;;;;;;;4.42;1.80;;;;;;;5.00;42.63;100707.87;1726644;81;21235;-57
2021/03/20 09:38:42;;;;;;;3.85;1.55;;;;;;;5.02;43.44;100710.77;1692686;82;21214;-58
2021/03/20 09:41:28;;;;;;;3.80;1.42;;;;;;;5.08;42.01;100708.76;1723383;81;21179;-57
2021/03/20 09:44:04;;;;;;;4.53;1.50;;;;;;;5.14;43.03;100715.80;1725287;81;21250;-58
2021/03/20 09:46:41;;;;;;;5.00;1.52;;;;;;;5.18;42.48;100715.21;1721402;81;21230;-58
2021/03/20 09:49:18;;;;;;;2.62;0.78;;;;;;;5.17;40.90;100710.91;1716949;81;21698;-58
2021/03/20 09:51:58;;;;;;;3.15;1.20;;;;;;;5.17;39.60;100709.13;1688612;81;21238;-56
2021/03/20 09:54:43;;;;;;;3.33;0.98;;;;;;;5.17;39.60;100709.13;1720179;81;21482;-56
2021/03/20 09:57:26;;;;;;;3.95;1.30;;;;;;;5.18;39.19;100709.99;1690254;83;21198;-55
2021/03/20 09:59:49;;;;;;;2.15;0.90;;;;;;;5.15;40.21;100710.98;1721987;81;21264;-55
2021/03/20 10:02:27;;;;;;;7.22;1.27;;;;;;;5.10;39.64;100703.86;1697521;83;21939;-55
2021/03/20 10:04:59;;;;;;;3.35;1.30;;;;;;;5.09;39.58;100709.16;1724583;81;21689;-55
2021/03/20 10:07:34;;;;;;;4.78;1.50;;;;;;;5.11;40.62;100707.30;1695444;83;21219;-56
2021/03/20 10:10:17;;;;;;;3.42;1.02;;;;;;;5.18;38.87;100699.55;1699868;83;21179;-56
2021/03/20 10:12:53;;;;;;;3.37;1.15;;;;;;;5.18;38.87;100699.55;1724025;81;21268;-55
2021/03/20 10:15:34;;;;;;;5.08;1.67;;;;;;;5.18;39.57;100708.69;1733121;81;21636;-54
2021/03/20 10:18:16;;;;;;;3.40;1.10;;;;;;;5.18;38.94;100714.73;1698815;81;21218;-55
2021/03/20 10:20:56;;;;;;;5.90;1.60;;;;;;;5.19;38.99;100712.52;1710103;83;21226;-56
2021/03/20 10:23:48;;;;;;;4.00;1.27;;;;;;;5.23;37.73;100709.29;1695474;82;21260;-56
2021/03/20 10:26:30;;;;;;;3.65;1.57;;;;;;;5.28;39.02;100713.80;1729751;81;22723;-59
2021/03/20 10:29:22;;;;;;;4.35;1.40;;;;;;;5.34;38.24;100709.55;1700202;82;21398;-55
2021/03/20 10:31:53;;;;;;;4.35;1.42;;;;;;;5.44;36.81;100706.45;1722738;81;21215;-55
2021/03/20 10:34:26;;;;;;;4.75;1.35;;;;;;;5.49;37.67;100703.14;1726549;81;21185;-57
2021/03/20 10:37:04;;;;;;;4.22;1.37;;;;;;;5.54;37.93;100708.48;1729133;81;21659;-57
2021/03/20 10:39:35;;;;;;;4.33;1.30;;;;;;;5.60;37.88;100709.94;1686129;82;21149;-57
2021/03/20 10:42:14;;;;;;;3.50;1.10;;;;;;;5.69;37.67;100703.37;1734377;81;21164;-57
2021/03/20 10:44:43;;;;;;;7.58;1.75;;;;;;;5.77;37.44;100704.63;1728832;81;21109;-56
2021/03/20 10:47:31;;;;;;;3.77;1.20;;;;;;;5.86;36.83;100699.83;1728151;81;21165;-55
2021/03/20 10:50:36;;;;;;;5.25;1.92;;;;;;;5.94;37.87;100701.08;1703411;82;21236;-57
2021/03/20 10:53:08;;;;;;;4.05;1.02;;;;;;;5.99;37.41;100700.03;1728009;81;21189;-57
2021/03/20 10:55:54;;;;;;;4.85;1.87;;;;;;;6.08;38.19;100691.67;1726341;81;21226;-57
2021/03/20 10:58:28;;;;;;;4.10;1.15;;;;;;;6.08;38.19;100691.67;1700507;81;21550;-57
2021/03/20 11:00:56;;;;;;;3.70;1.12;;;;;;;6.13;38.73;100690.94;1697292;83;21150;-56
2021/03/20 11:03:41;;;;;;;4.85;1.25;;;;;;;6.26;38.09;100691.93;1671572;84;21246;-56
2021/03/20 11:06:16;;;;;;;5.58;1.95;;;;;;;6.26;38.09;100691.93;1727821;81;21227;-56
2021/03/20 11:08:46;;;;;;;2.83;1.05;;;;;;;6.28;37.11;100690.54;1728882;81;21216;-57
2021/03/20 11:11:27;;;;;;;4.10;1.57;;;;;;;6.28;37.11;100690.54;1724857;82;21173;-56
2021/03/20 11:14:12;;;;;;;4.40;1.52;;;;;;;6.27;37.91;100690.15;1725031;81;21181;-58
2021/03/20 11:16:55;;;;;;;4.17;1.45;;;;;;;6.26;37.72;100685.88;1733658;81;21663;-56
2021/03/20 11:19:30;;;;;;;5.65;1.90;;;;;;;6.32;38.27;100679.83;1724140;81;21156;-55
2021/03/20 11:22:02;;;;;;;4.15;1.77;;;;;;;6.32;38.27;100679.83;1728756;81;21240;-57
2021/03/20 11:24:35;;;;;;;6.25;2.22;;;;;;;6.38;37.84;100681.23;1657436;83;21655;-57
2021/03/20 11:27:29;;;;;;;3.95;1.60;;;;;;;6.45;37.88;100681.25;1726075;81;21154;-58
2021/03/20 11:30:13;;;;;;;4.85;1.87;;;;;;;6.53;38.18;100678.67;1714225;82;21751;-57
2021/03/20 11:32:43;;;;;;;4.67;1.70;;;;;;;6.61;37.41;100677.29;1767231;79;21275;-57
2021/03/20 11:35:34;;;;;;;5.62;1.98;;;;;;;6.67;37.82;100674.33;1733416;79;21718;-58
2021/03/20 11:38:03;;;;;;;5.17;1.95;;;;;;;6.67;37.82;100674.33;1753362;79;21176;-58
2021/03/20 11:40:47;;;;;;;6.17;2.17;;;;;;;6.71;37.81;100673.67;1695052;82;21245;-59
2021/03/20 11:43:33;;;;;;;5.67;2.55;;;;;;;6.71;37.81;100673.67;1760951;79;21508;-59
2021/03/20 11:46:20;;;;;;;4.95;2.12;;;;;;;6.68;37.68;100669.45;1765163;79;21231;-56
2021/03/20 11:49:04;;;;;;;4.08;1.57;;;;;;;6.63;37.49;100668.88;1764693;79;21191;-58
2021/03/20 11:51:43;;;;;;;4.92;1.95;;;;;;;6.53;38.22;100672.14;1774099;79;21178;-58
2021/03/20 11:54:37;;;;;;;4.40;1.60;;;;;;;6.45;38.05;100665.56;1763910;79;21203;-58
2021/03/20 11:57:23;;;;;;;4.30;1.80;;;;;;;6.42;38.82;100667.08;1738536;79;21239;-57
2021/03/20 11:59:50;;;;;;;5.50;2.25;;;;;;;6.43;38.60;100672.66;1712848;81;21641;-58
2021/03/20 12:02:30;;;;;;;10.13;2.62;;;;;;;6.46;39.21;100663.34;1738642;79;21184;-56
2021/03/20 12:05:17;;;;;;;5.67;2.47;;;;;;;6.49;38.87;100668.87;1756988;79;21179;-57
2021/03/20 12:07:46;;;;;;;5.00;2.15;;;;;;;6.48;38.92;100668.48;1768208;79;21573;-58
2021/03/20 12:10:23;;;;;;;5.85;2.65;;;;;;;6.48;38.83;100668.00;1732805;79;21228;-59
2021/03/20 12:12:56;;;;;;;5.45;2.27;;;;;;;6.51;38.86;100673.06;1712482;81;21299;-57
2021/03/20 12:15:36;;;;;;;5.33;2.15;;;;;;;6.57;38.78;100661.86;1767082;79;21698;-58
2021/03/20 12:18:13;;;;;;;5.72;2.72;;;;;;;6.58;41.37;100668.31;1755736;79;21256;-58
2021/03/20 12:20:43;;;;;;;6.12;3.00;;;;;;;6.58;41.37;100668.31;1766331;79;21204;-58
2021/03/20 12:23:43;;;;;;;7.62;3.10;;;;;;;6.53;42.40;100674.75;1723101;81;22121;-58
2021/03/20 12:26:18;;;;;;;6.17;2.72;;;;;;;6.43;43.29;100675.27;1718476;82;21239;-57
2021/03/20 12:28:47;;;;;;;6.25;3.00;;;;;;;6.40;43.78;100674.14;1710681;82;21246;-58
2021/03/20 12:31:24;;;;;;;7.20;2.55;;;;;;;6.57;43.65;100667.09;1690655;82;21812;-58